createdAt,value
2022-10-31T00:00:02.807Z,100068.34
2022-10-31T00:02:36.505Z,100072.53
2022-10-31T00:05:10.747Z,100073.28
2022-10-31T00:07:43.644Z,100079.03
2022-10-31T00:10:17.486Z,100077.38
2022-10-31T00:12:50.314Z,100081.97
2022-10-31T00:15:25.677Z,100076.75
2022-10-31T00:18:01.056Z,100074.88
2022-10-31T00:20:34.440Z,100077.56
2022-10-31T00:23:09.084Z,100079.66
2022-10-31T00:25:42.595Z,100077.56
2022-10-31T00:28:15.411Z,100076.72
2022-10-31T00:30:50.755Z,100070.44
2022-10-31T00:33:24.516Z,100075.47
2022-10-31T00:35:58.049Z,100065.41
2022-10-31T00:38:31.633Z,100070.66
2022-10-31T00:41:05.562Z,100063.31
2022-10-31T00:43:38.817Z,100068.25
2022-10-31T00:46:14.797Z,100075.91
2022-10-31T00:48:48.783Z,100076.75
2022-10-31T00:51:22.682Z,100073.78
2022-10-31T00:53:56.509Z,100074.84
2022-10-31T00:56:30.552Z,100076.31
2022-10-31T00:59:04.361Z,100084.13
2022-10-31T01:01:39.885Z,100095.72
2022-10-31T01:04:13.698Z,100092.63
2022-10-31T01:06:47.641Z,100090.66
2022-10-31T01:09:20.831Z,100096.41
2022-10-31T01:11:54.051Z,100090.56
2022-10-31T01:14:27.737Z,100092.41
2022-10-31T01:17:02.916Z,100095.56
2022-10-31T01:19:36.590Z,100097.22
2022-10-31T01:22:10.389Z,100097.28
2022-10-31T01:24:43.911Z,100091.59
2022-10-31T01:27:17.564Z,100099.84
2022-10-31T01:29:51.169Z,100096.25
2022-10-31T01:32:25.501Z,100103.38
2022-10-31T01:34:58.879Z,100100.44
2022-10-31T01:37:32.966Z,100113.25
2022-10-31T01:40:06.958Z,100106.50
2022-10-31T01:42:41.224Z,100104.63
2022-10-31T01:45:17.929Z,100105.69
2022-10-31T01:47:52.547Z,100101.88
2022-10-31T01:50:33.429Z,100103.25
2022-10-31T01:53:11.055Z,100108.91
2022-10-31T01:55:47.702Z,100118.94
2022-10-31T01:58:25.873Z,100112.66
2022-10-31T02:01:06.658Z,100118.16
2022-10-31T02:03:43.767Z,100117.38
2022-10-31T02:06:29.327Z,100118.16
2022-10-31T02:09:04.997Z,100123.16
2022-10-31T02:11:40.764Z,100105.63
2022-10-31T02:14:14.031Z,100107.72
2022-10-31T02:16:47.624Z,100108.47
2022-10-31T02:19:33.114Z,100113.09
2022-10-31T02:22:16.079Z,100116.63
2022-10-31T02:25:04.790Z,100104.75
2022-10-31T02:28:14.977Z,100101.94
2022-10-31T02:31:08.558Z,100110.81
2022-10-31T02:33:47.152Z,100106.59
2022-10-31T02:36:30.476Z,100111.16
2022-10-31T02:39:13.719Z,100108.34
2022-10-31T02:41:54.691Z,100111.25
2022-10-31T02:44:37.177Z,100105.06
2022-10-31T02:47:17.651Z,100100.91
2022-10-31T02:49:59.158Z,100100.06
2022-10-31T02:52:35.147Z,100098.63
2022-10-31T02:55:14.157Z,100093.31
2022-10-31T02:57:47.866Z,100088.00
2022-10-31T03:00:21.681Z,100085.34
2022-10-31T03:03:09.267Z,100081.28
2022-10-31T03:05:58.025Z,100082.94
2022-10-31T03:08:38.342Z,100082.00
2022-10-31T03:11:12.802Z,100078.84
2022-10-31T03:13:53.189Z,100076.94
2022-10-31T03:16:35.138Z,100066.78
2022-10-31T03:19:13.949Z,100074.38
2022-10-31T03:21:50.073Z,100077.09
2022-10-31T03:24:27.765Z,100089.25
2022-10-31T03:27:03.237Z,100082.75
2022-10-31T03:29:38.942Z,100079.88
2022-10-31T03:32:17.690Z,100085.47
2022-10-31T03:34:57.884Z,100095.44
2022-10-31T03:37:36.039Z,100084.69
2022-10-31T03:40:14.012Z,100082.31
2022-10-31T03:42:54.823Z,100083.28
2022-10-31T03:45:31.788Z,100075.25
2022-10-31T03:48:05.134Z,100073.63
2022-10-31T03:50:48.218Z,100067.34
2022-10-31T03:53:27.401Z,100067.34
2022-10-31T03:56:05.442Z,100058.41
2022-10-31T03:58:44.842Z,100059.88
2022-10-31T04:01:21.607Z,100043.03
2022-10-31T04:03:56.654Z,100048.97
2022-10-31T04:06:34.378Z,100051.00
2022-10-31T04:09:10.882Z,100039.72
2022-10-31T04:11:51.573Z,100041.09
2022-10-31T04:14:26.403Z,100034.72
2022-10-31T04:17:02.055Z,100035.69
2022-10-31T04:19:35.917Z,100030.47
2022-10-31T04:22:13.883Z,100029.63
2022-10-31T04:24:46.710Z,100022.75
2022-10-31T04:27:20.608Z,100013.06
2022-10-31T04:29:54.190Z,100030.47
2022-10-31T04:32:28.017Z,100029.91
2022-10-31T04:35:02.286Z,100028.03
2022-10-31T04:37:37.454Z,100007.81
2022-10-31T04:40:12.346Z,100012.03
2022-10-31T04:42:46.152Z,100006.31
2022-10-31T04:45:21.401Z,100010.31
2022-10-31T04:47:55.668Z,100012.47
2022-10-31T04:50:29.315Z,100017.00
2022-10-31T04:53:04.619Z,100018.97
2022-10-31T04:55:38.172Z,100012.84
2022-10-31T04:58:12.246Z,100021.63
2022-10-31T05:00:46.106Z,100017.50
2022-10-31T05:03:20.005Z,100016.25
2022-10-31T05:05:53.880Z,100007.44
2022-10-31T05:08:29.003Z,100007.13
2022-10-31T05:11:04.588Z,100014.34
2022-10-31T05:13:38.573Z,100018.34
2022-10-31T05:16:12.148Z,100014.59
2022-10-31T05:18:45.852Z,100004.91
2022-10-31T05:21:19.864Z,100007.63
2022-10-31T05:23:55.012Z,100011.84
2022-10-31T05:26:28.619Z,100004.06
2022-10-31T05:29:01.573Z,100004.31
2022-10-31T05:31:35.376Z,100014.59
2022-10-31T05:34:09.098Z,100013.50
2022-10-31T05:36:42.645Z,100021.53
2022-10-31T05:39:16.879Z,100013.75
2022-10-31T05:41:50.400Z,100004.09
2022-10-31T05:44:24.396Z,100002.97
2022-10-31T05:46:58.190Z,100000.06
2022-10-31T05:49:31.574Z,99996.13
2022-10-31T05:52:05.665Z,99994.44
2022-10-31T05:54:41.039Z,99980.59
2022-10-31T05:57:13.850Z,99984.34
2022-10-31T05:59:52.344Z,99990.47
2022-10-31T06:02:28.415Z,99980.13
2022-10-31T06:05:02.171Z,99976.56
2022-10-31T06:07:36.683Z,99982.25
2022-10-31T06:10:11.748Z,99985.19
2022-10-31T06:12:45.361Z,99990.25
2022-10-31T06:15:24.181Z,99975.13
2022-10-31T06:18:03.553Z,99979.53
2022-10-31T06:20:37.776Z,99967.34
2022-10-31T06:23:10.599Z,99963.34
2022-10-31T06:25:45.624Z,99966.28
2022-10-31T06:28:18.661Z,99969.44
2022-10-31T06:30:52.355Z,99961.66
2022-10-31T06:33:25.265Z,99959.97
2022-10-31T06:35:58.235Z,99973.41
2022-10-31T06:38:31.869Z,99960.84
2022-10-31T06:41:08.303Z,99971.72
2022-10-31T06:43:41.069Z,99958.31
2022-10-31T06:46:14.715Z,99959.16
2022-10-31T06:48:48.343Z,99959.56
2022-10-31T06:51:22.037Z,99970.28
2022-10-31T06:53:55.702Z,99968.38
2022-10-31T06:56:31.248Z,99963.16
2022-10-31T06:59:04.263Z,99963.78
2022-10-31T07:01:37.884Z,99962.09
2022-10-31T07:04:12.022Z,99960.38
2022-10-31T07:06:50.885Z,99957.25
2022-10-31T07:09:25.366Z,99967.09
2022-10-31T07:12:00.459Z,99978.47
2022-10-31T07:14:34.134Z,99971.75
2022-10-31T07:17:08.121Z,99974.88
2022-10-31T07:19:41.687Z,99977.59
2022-10-31T07:22:15.428Z,99975.09
2022-10-31T07:24:49.184Z,99978.00
2022-10-31T07:27:24.484Z,99986.00
2022-10-31T07:29:58.179Z,99988.94
2022-10-31T07:32:40.406Z,99995.22
2022-10-31T07:35:15.534Z,100005.31
2022-10-31T07:37:49.515Z,100005.94
2022-10-31T07:40:23.840Z,100003.84
2022-10-31T07:43:00.171Z,100004.06
2022-10-31T07:45:33.832Z,99996.91
2022-10-31T07:48:07.090Z,100003.44
2022-10-31T07:50:40.255Z,100007.19
2022-10-31T07:53:15.768Z,100013.03
2022-10-31T07:55:49.301Z,100007.22
2022-10-31T07:58:24.566Z,100014.31
2022-10-31T08:01:00.340Z,100009.25
2022-10-31T08:03:34.206Z,100008.31
2022-10-31T08:06:08.407Z,100002.03
2022-10-31T08:08:42.040Z,100002.44
2022-10-31T08:11:14.990Z,99998.91
2022-10-31T08:13:50.158Z,99992.06
2022-10-31T08:16:23.031Z,99983.84
2022-10-31T08:18:57.004Z,99979.69
2022-10-31T08:21:29.838Z,99980.97
2022-10-31T08:24:02.867Z,99984.75
2022-10-31T08:26:35.923Z,99983.78
2022-10-31T08:29:10.252Z,99986.13
2022-10-31T08:31:43.629Z,99977.53
2022-10-31T08:34:16.488Z,99972.13
2022-10-31T08:36:50.078Z,99969.56
2022-10-31T08:39:23.946Z,99970.97
2022-10-31T08:41:56.834Z,99960.41
2022-10-31T08:44:31.117Z,99975.75
2022-10-31T08:47:04.786Z,99972.78
2022-10-31T08:49:37.624Z,99969.78
2022-10-31T08:52:14.315Z,99971.59
2022-10-31T08:54:48.489Z,99982.06
2022-10-31T08:57:22.177Z,99951.88
2022-10-31T08:59:57.193Z,99971.69
2022-10-31T09:02:30.096Z,99977.00
2022-10-31T09:05:03.480Z,99977.22
2022-10-31T09:07:36.390Z,99987.28
2022-10-31T09:10:09.900Z,99985.16
2022-10-31T09:12:42.712Z,99972.97
2022-10-31T09:15:17.748Z,99969.78
2022-10-31T09:17:50.970Z,99967.44
2022-10-31T09:20:24.972Z,99967.25
2022-10-31T09:22:59.187Z,99959.91
2022-10-31T09:25:32.507Z,99959.09
2022-10-31T09:28:07.913Z,99961.75
2022-10-31T09:30:42.198Z,99963.44
2022-10-31T09:33:15.775Z,99950.78
2022-10-31T09:35:49.660Z,99965.91
2022-10-31T09:38:24.615Z,99957.22
2022-10-31T09:41:08.577Z,99953.44
2022-10-31T09:43:52.579Z,99948.47
2022-10-31T09:46:36.993Z,99947.63
2022-10-31T09:49:45.906Z,99934.16
2022-10-31T09:52:25.846Z,99938.88
2022-10-31T09:55:04.420Z,99934.81
2022-10-31T09:57:39.555Z,99946.53
2022-10-31T10:00:19.541Z,99945.69
2022-10-31T10:03:00.681Z,99945.56
2022-10-31T10:05:48.020Z,99946.75
2022-10-31T10:08:26.319Z,99939.66
2022-10-31T10:11:09.923Z,99946.53
2022-10-31T10:14:00.094Z,99938.00
2022-10-31T10:16:52.090Z,99941.97
2022-10-31T10:19:42.469Z,99939.66
2022-10-31T10:22:24.414Z,99937.47
2022-10-31T10:25:13.325Z,99936.78
2022-10-31T10:27:57.566Z,99936.94
2022-10-31T10:30:37.991Z,99944.72
2022-10-31T10:33:14.347Z,99954.28
2022-10-31T10:35:53.359Z,99935.44
2022-10-31T10:38:32.258Z,99935.41
2022-10-31T10:41:12.203Z,99930.47
2022-10-31T10:43:45.063Z,99922.59
2022-10-31T10:46:42.605Z,99925.56
2022-10-31T10:49:19.515Z,99915.19
2022-10-31T10:55:05.141Z,99927.78
2022-10-31T10:57:51.177Z,99916.16
2022-10-31T11:00:26.358Z,99913.13
2022-10-31T11:02:59.699Z,99912.19
2022-10-31T11:05:39.041Z,99911.50
2022-10-31T11:08:27.704Z,99905.28
2022-10-31T11:11:03.087Z,99901.81
2022-10-31T11:13:37.815Z,99903.59
2022-10-31T11:16:13.586Z,99890.81
2022-10-31T11:18:48.769Z,99878.31
2022-10-31T11:21:24.036Z,99876.13
2022-10-31T11:24:06.296Z,99873.63
2022-10-31T11:26:40.455Z,99875.91
2022-10-31T11:29:18.859Z,99877.78
2022-10-31T11:31:55.610Z,99869.72
2022-10-31T11:34:32.923Z,99866.06
2022-10-31T11:37:14.881Z,99866.59
2022-10-31T11:39:54.455Z,99860.56
2022-10-31T11:42:31.136Z,99851.47
2022-10-31T11:45:09.833Z,99853.75
2022-10-31T11:47:46.715Z,99850.72
2022-10-31T11:50:24.793Z,99855.84
2022-10-31T11:52:57.961Z,99858.97
2022-10-31T11:55:37.669Z,99851.28
2022-10-31T11:58:23.833Z,99848.50
2022-10-31T12:00:59.045Z,99851.09
2022-10-31T12:03:44.863Z,99849.81
2022-10-31T12:06:23.836Z,99851.31
2022-10-31T12:08:56.659Z,99845.78
2022-10-31T12:11:42.708Z,99839.88
2022-10-31T12:14:28.936Z,99833.19
2022-10-31T12:17:10.589Z,99838.22
2022-10-31T12:19:55.351Z,99829.16
2022-10-31T12:22:40.257Z,99819.78
2022-10-31T12:25:25.451Z,99826.72
2022-10-31T12:28:16.392Z,99820.81
2022-10-31T12:30:58.899Z,99809.56
2022-10-31T12:33:43.358Z,99815.94
2022-10-31T12:36:33.849Z,99806.75
2022-10-31T12:39:25.947Z,99802.19
2022-10-31T12:42:10.351Z,99798.03
2022-10-31T12:45:01.716Z,99799.84
2022-10-31T12:47:53.624Z,99789.09
2022-10-31T12:50:37.191Z,99783.88
2022-10-31T12:53:24.794Z,99779.72
2022-10-31T12:56:09.822Z,99768.97
2022-10-31T12:58:49.127Z,99760.81
2022-10-31T13:01:29.397Z,99765.50
2022-10-31T13:04:07.932Z,99766.13
2022-10-31T13:06:45.190Z,99758.13
2022-10-31T13:09:23.042Z,99753.94
2022-10-31T13:12:00.456Z,99743.38
2022-10-31T13:14:39.316Z,99735.13
2022-10-31T13:17:20.886Z,99723.56
2022-10-31T13:20:00.512Z,99720.31
2022-10-31T13:22:37.588Z,99715.16
2022-10-31T13:25:16.841Z,99711.66
2022-10-31T13:27:55.163Z,99698.91
2022-10-31T13:30:31.591Z,99693.81
2022-10-31T13:33:12.484Z,99688.19
2022-10-31T13:35:52.285Z,99695.44
2022-10-31T13:38:35.856Z,99683.06
2022-10-31T13:41:20.449Z,99680.66
2022-10-31T13:44:03.224Z,99676.09
2022-10-31T13:49:28.519Z,99665.53
2022-10-31T13:52:15.641Z,99651.22
2022-10-31T13:54:56.619Z,99656.94
2022-10-31T13:57:35.119Z,99649.16
2022-10-31T14:00:25.379Z,99642.84
2022-10-31T14:02:59.764Z,99640.09
2022-10-31T14:05:36.527Z,99638.66
2022-10-31T14:08:24.117Z,99640.94
2022-10-31T14:10:58.418Z,99640.00
2022-10-31T14:13:35.692Z,99649.53
2022-10-31T14:16:20.804Z,99638.56
2022-10-31T14:19:01.573Z,99635.78
2022-10-31T14:21:41.098Z,99628.16
2022-10-31T14:24:32.170Z,99614.22
2022-10-31T14:27:26.817Z,99611.72
2022-10-31T14:30:20.083Z,99604.19
2022-10-31T14:32:56.206Z,99612.59
2022-10-31T14:35:45.482Z,99605.03
2022-10-31T14:38:34.948Z,99598.69
2022-10-31T14:41:30.702Z,99589.47
2022-10-31T14:44:42.077Z,99580.19
2022-10-31T14:47:28.417Z,99579.19
2022-10-31T14:50:22.462Z,99568.00
2022-10-31T14:52:59.329Z,99576.19
2022-10-31T14:55:33.894Z,99559.56
2022-10-31T14:58:09.316Z,99552.03
2022-10-31T15:00:45.405Z,99548.81
2022-10-31T15:03:27.549Z,99542.47
2022-10-31T15:06:05.201Z,99545.59
2022-10-31T15:08:47.638Z,99536.66
2022-10-31T15:11:22.833Z,99536.53
2022-10-31T15:13:57.132Z,99529.50
2022-10-31T15:16:35.656Z,99526.16
2022-10-31T15:19:14.143Z,99531.78
2022-10-31T15:21:47.811Z,99521.63
2022-10-31T15:24:22.317Z,99519.03
2022-10-31T15:26:59.636Z,99517.00
2022-10-31T15:29:35.161Z,99516.41
2022-10-31T15:32:21.634Z,99507.91
2022-10-31T15:34:57.664Z,99502.16
2022-10-31T15:37:30.609Z,99506.78
2022-10-31T15:40:09.831Z,99486.84
2022-10-31T15:42:44.568Z,99496.28
2022-10-31T15:45:24.380Z,99489.75
2022-10-31T15:48:00.002Z,99477.22
2022-10-31T15:50:40.444Z,99490.75
2022-10-31T15:53:20.500Z,99481.22
2022-10-31T15:55:56.772Z,99477.88
2022-10-31T15:58:30.576Z,99471.63
2022-10-31T16:01:05.731Z,99486.66
2022-10-31T16:03:39.734Z,99472.63
2022-10-31T16:06:23.100Z,99457.72
2022-10-31T16:08:56.539Z,99460.59
2022-10-31T16:11:36.380Z,99455.19
2022-10-31T16:14:25.336Z,99454.28
2022-10-31T16:17:01.164Z,99442.97
2022-10-31T16:19:36.718Z,99435.03
2022-10-31T16:22:15.432Z,99434.91
2022-10-31T16:24:51.693Z,99427.19
2022-10-31T16:27:29.551Z,99429.34
2022-10-31T16:30:05.316Z,99426.44
2022-10-31T16:32:53.382Z,99425.94
2022-10-31T16:35:28.644Z,99424.25
2022-10-31T16:38:06.388Z,99424.56
2022-10-31T16:40:40.535Z,99410.78
2022-10-31T16:43:15.368Z,99399.19
2022-10-31T16:45:49.862Z,99403.97
2022-10-31T16:48:24.443Z,99395.66
2022-10-31T16:50:57.389Z,99387.03
2022-10-31T16:53:32.340Z,99365.03
2022-10-31T16:56:06.321Z,99365.78
2022-10-31T16:58:39.141Z,99344.00
2022-10-31T17:01:15.073Z,99356.38
2022-10-31T17:03:47.913Z,99352.19
2022-10-31T17:06:20.725Z,99344.31
2022-10-31T17:08:55.417Z,99341.88
2022-10-31T17:11:28.650Z,99334.94
2022-10-31T17:14:02.479Z,99333.03
2022-10-31T17:16:36.379Z,99331.28
2022-10-31T17:19:13.021Z,99340.19
2022-10-31T17:21:46.027Z,99329.13
2022-10-31T17:24:21.158Z,99323.78
2022-10-31T17:26:55.235Z,99313.66
2022-10-31T17:29:28.011Z,99313.72
2022-10-31T17:32:03.547Z,99318.53
2022-10-31T17:34:37.140Z,99317.88
2022-10-31T17:37:12.896Z,99309.06
2022-10-31T17:39:47.069Z,99311.69
2022-10-31T17:42:20.502Z,99308.28
2022-10-31T17:44:53.310Z,99308.75
2022-10-31T17:47:26.124Z,99313.22
2022-10-31T17:49:59.809Z,99310.56
2022-10-31T17:52:32.657Z,99313.38
2022-10-31T17:55:08.122Z,99307.34
2022-10-31T17:57:42.085Z,99308.47
2022-10-31T18:00:18.161Z,99304.25
2022-10-31T18:02:52.405Z,99292.50
2022-10-31T18:05:26.317Z,99287.94
2022-10-31T18:08:03.747Z,99284.16
2022-10-31T18:10:39.993Z,99276.88
2022-10-31T18:13:12.975Z,99269.25
2022-10-31T18:15:46.596Z,99262.75
2022-10-31T18:18:19.715Z,99241.00
2022-10-31T18:20:53.857Z,99239.78
2022-10-31T18:23:26.686Z,99240.47
2022-10-31T18:26:01.920Z,99241.38
2022-10-31T18:28:35.723Z,99232.22
2022-10-31T18:31:09.485Z,99233.63
2022-10-31T18:33:42.583Z,99224.09
2022-10-31T18:36:15.680Z,99233.56
2022-10-31T18:38:49.624Z,99227.81
2022-10-31T18:41:24.860Z,99227.88
2022-10-31T18:44:00.195Z,99207.94
2022-10-31T18:46:33.166Z,99199.03
2022-10-31T18:49:07.247Z,99184.44
2022-10-31T18:51:40.778Z,99174.78
2022-10-31T18:54:13.726Z,99148.03
2022-10-31T18:56:48.730Z,99145.78
2022-10-31T18:59:24.802Z,99136.16
2022-10-31T19:01:58.613Z,99133.72
2022-10-31T19:04:32.445Z,99140.25
2022-10-31T19:07:06.108Z,99134.47
2022-10-31T19:09:39.071Z,99144.34
2022-10-31T19:12:14.202Z,99137.22
2022-10-31T19:14:49.316Z,99131.31
2022-10-31T19:17:25.180Z,99112.53
2022-10-31T19:19:59.069Z,99115.03
2022-10-31T19:22:32.787Z,99102.84
2022-10-31T19:25:10.701Z,99104.09
2022-10-31T19:27:46.379Z,99092.34
2022-10-31T19:30:21.738Z,99061.72
2022-10-31T19:32:56.674Z,99039.59
2022-10-31T19:35:30.122Z,99020.91
2022-10-31T19:38:04.059Z,99008.50
2022-10-31T19:40:38.396Z,99003.41
2022-10-31T19:43:13.523Z,99000.56
2022-10-31T19:45:57.794Z,98998.72
2022-10-31T19:48:32.213Z,98982.34
2022-10-31T19:51:06.963Z,98977.97
2022-10-31T19:53:40.750Z,98968.16
2022-10-31T19:56:16.174Z,98940.59
2022-10-31T19:58:51.839Z,98943.47
2022-10-31T20:01:25.921Z,98934.56
2022-10-31T20:03:59.754Z,98925.78
2022-10-31T20:06:34.747Z,98916.88
2022-10-31T20:09:09.696Z,98902.41
2022-10-31T20:11:45.061Z,98884.13
2022-10-31T20:14:20.149Z,98881.53
2022-10-31T20:16:55.550Z,98891.03
2022-10-31T20:19:28.479Z,98898.75
2022-10-31T20:22:02.452Z,98889.34
2022-10-31T20:24:36.075Z,98880.84
2022-10-31T20:27:09.762Z,98863.63
2022-10-31T20:29:44.715Z,98862.06
2022-10-31T20:32:18.461Z,98857.22
2022-10-31T20:34:51.975Z,98843.44
2022-10-31T20:37:25.990Z,98852.13
2022-10-31T20:39:59.488Z,98849.81
2022-10-31T20:43:26.933Z,98840.94
2022-10-31T20:46:04.550Z,98835.38
2022-10-31T20:48:37.521Z,98817.13
2022-10-31T20:51:13.970Z,98814.75
2022-10-31T20:53:47.117Z,98805.59
2022-10-31T20:56:21.946Z,98797.66
2022-10-31T20:58:58.057Z,98796.94
2022-10-31T21:01:33.415Z,98793.16
2022-10-31T21:04:10.122Z,98790.56
2022-10-31T21:06:49.072Z,98783.31
2022-10-31T21:09:22.699Z,98778.06
2022-10-31T21:11:55.693Z,98783.19
2022-10-31T21:14:30.276Z,98773.94
2022-10-31T21:17:04.108Z,98773.81
2022-10-31T21:19:37.497Z,98774.53
2022-10-31T21:22:11.329Z,98757.56
2022-10-31T21:24:45.397Z,98747.72
2022-10-31T21:27:18.981Z,98747.25
2022-10-31T21:29:54.294Z,98735.25
2022-10-31T21:32:27.937Z,98720.66
2022-10-31T21:35:01.774Z,98712.72
2022-10-31T21:37:35.761Z,98709.16
2022-10-31T21:40:10.724Z,98696.81
2022-10-31T21:42:43.983Z,98693.00
2022-10-31T21:45:18.316Z,98687.56
2022-10-31T21:47:52.262Z,98686.72
2022-10-31T21:50:25.133Z,98680.28
2022-10-31T21:53:18.501Z,98667.69
2022-10-31T21:55:51.278Z,98669.00
2022-10-31T21:59:00.701Z,98659.66
2022-10-31T22:01:35.863Z,98657.75
2022-10-31T22:04:09.800Z,98649.84
2022-10-31T22:06:42.671Z,98646.28
2022-10-31T22:09:17.599Z,98632.25
2022-10-31T22:11:51.420Z,98634.84
2022-10-31T22:14:26.044Z,98637.22
2022-10-31T22:16:59.808Z,98626.13
2022-10-31T22:19:33.432Z,98628.72
2022-10-31T22:22:06.337Z,98611.59
2022-10-31T22:24:39.130Z,98598.78
2022-10-31T22:27:12.976Z,98577.34
2022-10-31T22:29:47.178Z,98570.66
2022-10-31T22:32:20.004Z,98569.31
2022-10-31T22:34:52.816Z,98561.31
2022-10-31T22:37:25.652Z,98564.56
2022-10-31T22:39:58.448Z,98552.03
2022-10-31T22:42:31.435Z,98546.41
2022-10-31T22:45:07.014Z,98541.44
2022-10-31T22:50:20.745Z,98521.88
2022-10-31T22:52:54.497Z,98514.59
2022-10-31T22:55:27.446Z,98510.72
2022-10-31T22:58:01.281Z,98495.06
2022-10-31T23:00:36.935Z,98491.69
2022-10-31T23:03:10.769Z,98488.09
2022-10-31T23:05:44.765Z,98481.72
2022-10-31T23:08:18.631Z,98481.28
2022-10-31T23:10:51.524Z,98476.41
2022-10-31T23:13:42.467Z,98470.88
2022-10-31T23:16:17.495Z,98462.16
2022-10-31T23:18:51.473Z,98454.94
2022-10-31T23:21:54.918Z,98449.81
2022-10-31T23:24:32.889Z,98436.50
2022-10-31T23:27:10.133Z,98434.22
2022-10-31T23:29:45.672Z,98425.78
2022-10-31T23:32:23.383Z,98419.72
2022-10-31T23:34:58.746Z,98400.09
2022-10-31T23:37:34.927Z,98398.88
2022-10-31T23:40:09.708Z,98397.63
2022-10-31T23:42:43.345Z,98397.03
2022-10-31T23:45:17.305Z,98383.13
2022-10-31T23:47:52.328Z,98380.41
2022-10-31T23:50:26.073Z,98378.25
2022-10-31T23:52:59.902Z,98373.88
2022-10-31T23:55:33.848Z,98370.47
2022-10-31T23:58:07.543Z,98361.88
